Impacts METAR Board
IDs:

KJFK - New York/Kennedy Int, NY, US

Updated at: 2000 UTC 19 Jan 2019
Potential Impact None Slight Moderate High
Time 19/08Z 19/09Z 19/10Z 19/11Z 19/12Z 19/13Z 19/14Z 19/15Z 19/16Z 19/17Z 19/18Z 19/19Z 19/20Z
Temp34 32 31 32 30 31 34 36 37 37 37 36 36
Dewpt22 21 22 22 22 23 24 23 24 23 23 24 26
Altim30.23 30.22 30.22 30.23 30.23 30.25 30.28 30.28 30.28 30.26 30.21 30.19 30.18
VIS10 10 10 10 10 10 10 10 10 10 10 10 10
CIG250 -- -- -- -- -- 46 50 50 33 34 33 44
CoverBKNSCTSCTSCTSCTSCTBKNBKNOVCOVCOVCOVCOVC
FltCatVFRVFRVFRVFRVFRVFRVFRVFRVFRVFRVFRVFRVFR
WX--------------------------
WDir3103103203202020202090130110100100
WSpd9 6 6 7 4 3 3 6 6 8 9 9 6
WGst-- -- -- -- -- -- -- -- -- -- -- -- --
Raw hourly METARs
KJFK 190751Z 31009KT 10SM FEW045 BKN250 01/M06 A3023 RMK AO2 SLP236 T00111056
KJFK 190851Z 31006KT 10SM FEW045 SCT250 00/M06 A3022 RMK AO2 SLP233 T00001061 50011
KJFK 190951Z 32006KT 10SM FEW045 SCT250 M01/M06 A3022 RMK AO2 SLP233 T10061056
KJFK 191051Z 32007KT 10SM SCT250 00/M06 A3023 RMK AO2 SLP238 T00001056
KJFK 191151Z 02004KT 10SM SCT047 SCT250 M01/M06 A3023 RMK AO2 SLP236 T10111056 10017 21011 50003
KJFK 191251Z 02003KT 10SM FEW050 SCT250 M01/M05 A3025 RMK AO2 SLP241 T10061050
KJFK 191351Z 02003KT 10SM BKN046 BKN250 01/M04 A3028 RMK AO2 SLP251 T00111044
KJFK 191451Z 02006KT 10SM FEW043 BKN050 BKN250 02/M05 A3028 RMK AO2 SLP255 T00221050 51018
KJFK 191551Z 09006KT 10SM SCT038 OVC050 03/M04 A3028 RMK AO2 SLP254 T00281044
KJFK 191651Z 13008KT 10SM OVC033 03/M05 A3026 RMK AO2 SLP246 T00281050
KJFK 191751Z 11009KT 10SM OVC034 03/M05 A3021 RMK AO2 SLP228 T00281050 10028 21017 58026
KJFK 191851Z 10009KT 10SM OVC033 02/M04 A3019 RMK AO2 SLP223 T00221044
KJFK 191951Z 10006KT 10SM SCT034 OVC044 02/M03 A3018 RMK AO2 SLP221 T00221033



Page loaded:  20:40 UTC  |   12:40 PM Pacific  |   01:40 PM Mountain  |   02:40 PM Central  |   03:40 PM Eastern

 

ADVISORIES

FORECASTS

FORECASTS

OBSERVATIONS

USER TOOLS

ABOUT US